Main page
Satellite images 10-day forecastsClimateMarine weather Cyclones Lightning AirportsFAQ Newsletter About
Weather : Europe Africa North America South America Asia Australia-Oceania Others
Languages Contact

Mexicali, Mexico

General Rodolfo Sánchez Taboada International Airport

latitude: 32-37-50N, longitude: 115-14-30W, elevation: 22 m


METAR: MMML 010449Z 00000KT 10SM SKC 24/01 A2981
TAF: MMML 010411Z 0106/0206 30005KT P6SM SKC FM011800 29010KT P6SM SCT250 FM020500 30005KT P6SM SKC

Time: 07:08 (13:08 UTC)

Current weather observation

The report was made 8 hours and 19 minutes ago, at 04:49 UTC
Calm wind
Temperature 24°C
Humidity 22%
Pressure 1009 hPa
Visibility: 16.1 km
Clear sky

Change units

Forecast

The report was made 8 hours and 57 minutes ago, at 04:11 UTC
Forecast valid from 01 at 06 UTC to 02 at 06 UTC
Wind 5 kt from the West/Northwest
Visibility: 10 km
Clear sky
From 01 at 1800 UTC
Wind 10 kt from the West/Northwest
Visibility: 10 km
Scattered clouds at a height of 25000 ft
From 02 at 0500 UTC
Wind 5 kt from the West/Northwest
Visibility: 10 km
Clear sky
The information on this site is subject to a disclaimer
Weather : Europe Africa North America South America Asia Australia-Oceania Others
Satellite images 10-day forecastsClimateMarine weather Cyclones Lightning AirportsFAQ Languages Contact Newsletter About